createdAt,value
2018-08-18T00:01:32.954Z,10.83
2018-08-18T00:04:11.567Z,13.03
2018-08-18T00:06:40.014Z,13.85
2018-08-18T00:09:08.234Z,11.77
2018-08-18T00:11:36.411Z,11.30
2018-08-18T00:14:04.609Z,11.55
2018-08-18T00:16:32.803Z,11.60
2018-08-18T00:19:01.498Z,12.98
2018-08-18T00:21:31.858Z,11.25
2018-08-18T00:24:08.162Z,11.87
2018-08-18T00:26:36.361Z,13.90
2018-08-18T00:29:05.118Z,11.00
2018-08-18T00:31:33.317Z,13.40
2018-08-18T00:34:01.962Z,14.67
2018-08-18T00:36:30.126Z,11.50
2018-08-18T00:39:00.233Z,11.40
2018-08-18T00:41:29.657Z,11.73
2018-08-18T00:43:58.794Z,12.23
2018-08-18T00:46:29.111Z,12.83
2018-08-18T00:48:57.501Z,13.10
2018-08-18T00:51:31.027Z,12.20
2018-08-18T00:53:59.241Z,13.40
2018-08-18T00:56:27.413Z,12.93
2018-08-18T00:58:56.282Z,11.90
2018-08-18T01:01:24.490Z,14.37
2018-08-18T01:03:54.689Z,14.67
2018-08-18T01:06:36.203Z,13.63
2018-08-18T01:09:08.027Z,13.07
2018-08-18T01:11:36.413Z,12.70
2018-08-18T01:14:12.406Z,12.93
2018-08-18T01:16:48.846Z,12.87
2018-08-18T01:19:24.178Z,14.63
2018-08-18T01:21:58.254Z,15.60
2018-08-18T01:24:26.749Z,16.10
2018-08-18T01:26:54.930Z,14.00
2018-08-18T01:29:24.845Z,12.93
2018-08-18T01:31:53.054Z,12.37
2018-08-18T01:34:21.297Z,14.90
2018-08-18T01:36:49.489Z,12.27
2018-08-18T01:39:19.347Z,13.50
2018-08-18T01:41:47.674Z,15.03
2018-08-18T01:44:19.321Z,15.40
2018-08-18T01:46:48.179Z,12.87
2018-08-18T01:49:33.147Z,16.77
2018-08-18T01:52:05.271Z,18.50
2018-08-18T01:54:33.825Z,14.27
2018-08-18T01:57:07.141Z,17.13
2018-08-18T01:59:35.670Z,15.47
2018-08-18T02:02:04.071Z,14.30
2018-08-18T02:04:32.218Z,14.77
2018-08-18T02:07:27.997Z,15.83
2018-08-18T02:09:56.466Z,16.70
2018-08-18T02:12:24.974Z,15.73
2018-08-18T02:14:53.494Z,14.80
2018-08-18T02:17:35.585Z,15.73
2018-08-18T02:20:04.553Z,13.40
2018-08-18T02:22:32.865Z,13.77
2018-08-18T02:25:01.274Z,14.50
2018-08-18T02:27:32.520Z,14.43
2018-08-18T02:30:12.147Z,14.37
2018-08-18T02:32:40.389Z,16.07
2018-08-18T02:35:08.992Z,14.07
2018-08-18T02:37:37.189Z,15.10
2018-08-18T02:40:07.806Z,15.00
2018-08-18T02:42:35.953Z,14.53
2018-08-18T02:45:04.522Z,16.03
2018-08-18T02:47:32.682Z,14.50
2018-08-18T02:50:01.005Z,15.90
2018-08-18T02:52:33.397Z,15.50
2018-08-18T02:55:07.485Z,16.47
2018-08-18T02:57:39.778Z,15.20
2018-08-18T03:00:28.209Z,13.77
2018-08-18T03:02:56.403Z,15.70
2018-08-18T03:05:26.005Z,13.97
2018-08-18T03:07:54.263Z,14.60
2018-08-18T03:10:22.445Z,15.00
2018-08-18T03:12:52.371Z,18.53
2018-08-18T03:15:57.093Z,17.70
2018-08-18T03:18:49.604Z,16.90
2018-08-18T03:21:18.313Z,16.83
2018-08-18T03:23:58.145Z,16.87
2018-08-18T03:26:31.615Z,17.17
2018-08-18T03:28:59.888Z,18.17
2018-08-18T03:31:28.083Z,16.60
2018-08-18T03:33:56.453Z,17.57
2018-08-18T03:36:33.606Z,17.63
2018-08-18T03:39:01.785Z,15.10
2018-08-18T03:41:30.358Z,16.50
2018-08-18T03:43:58.790Z,14.47
2018-08-18T03:46:26.997Z,15.93
2018-08-18T03:48:55.249Z,16.63
2018-08-18T03:51:28.969Z,15.63
2018-08-18T03:53:57.303Z,21.00
2018-08-18T03:56:25.697Z,19.43
2018-08-18T03:58:54.998Z,17.03
2018-08-18T04:01:37.567Z,16.33
2018-08-18T04:04:07.285Z,17.13
2018-08-18T04:06:37.491Z,17.90
2018-08-18T04:09:13.067Z,18.00
2018-08-18T04:11:41.498Z,17.90
2018-08-18T04:14:09.726Z,17.57
2018-08-18T04:16:46.522Z,16.00
2018-08-18T04:19:18.466Z,19.93
2018-08-18T04:21:47.002Z,19.07
2018-08-18T04:24:15.598Z,19.57
2018-08-18T04:26:48.793Z,17.23
2018-08-18T04:29:17.722Z,14.87
2018-08-18T04:31:45.926Z,19.07
2018-08-18T04:34:14.126Z,16.97
2018-08-18T04:36:42.350Z,18.63
2018-08-18T04:39:11.935Z,14.83
2018-08-18T04:41:40.590Z,13.10
2018-08-18T04:44:08.767Z,12.60
2018-08-18T04:46:37.072Z,14.80
2018-08-18T04:49:05.770Z,11.77
2018-08-18T04:51:34.029Z,13.67
2018-08-18T04:54:02.561Z,11.83
2018-08-18T04:56:30.766Z,11.70
2018-08-18T04:58:59.006Z,14.23
2018-08-18T05:01:27.165Z,10.00
2018-08-18T05:04:03.302Z,9.17
2018-08-18T05:06:34.268Z,10.13
2018-08-18T05:09:04.628Z,9.97
2018-08-18T05:11:32.915Z,9.90
2018-08-18T05:14:00.986Z,8.73
2018-08-18T05:16:29.154Z,7.30
2018-08-18T05:18:57.411Z,11.77
2018-08-18T05:21:25.546Z,7.30
2018-08-18T05:23:54.866Z,8.57
2018-08-18T05:26:23.125Z,9.67
2018-08-18T05:28:51.400Z,7.00
2018-08-18T05:31:20.889Z,5.03
2018-08-18T05:33:49.422Z,5.70
2018-08-18T05:36:17.669Z,5.57
2018-08-18T05:38:45.862Z,5.07
2018-08-18T05:41:15.942Z,5.42
2018-08-18T05:43:44.070Z,7.12
2018-08-18T05:46:12.253Z,5.20
2018-08-18T05:48:40.425Z,7.85
2018-08-18T05:51:08.621Z,4.40
2018-08-18T05:53:36.890Z,6.00
2018-08-18T05:56:05.100Z,6.20
2018-08-18T05:58:50.126Z,4.97
2018-08-18T06:01:32.030Z,7.15
2018-08-18T06:04:05.754Z,6.35
2018-08-18T06:06:34.031Z,5.37
2018-08-18T06:09:02.232Z,4.97
2018-08-18T06:11:30.429Z,4.12
2018-08-18T06:13:58.585Z,3.50
2018-08-18T06:16:26.786Z,3.75
2018-08-18T06:18:55.004Z,5.97
2018-08-18T06:21:23.170Z,5.75
2018-08-18T06:23:52.379Z,4.08
2018-08-18T06:26:20.616Z,4.42
2018-08-18T06:28:50.259Z,3.52
2018-08-18T06:31:18.453Z,7.28
2018-08-18T06:33:46.690Z,5.17
2018-08-18T06:36:14.831Z,5.12
2018-08-18T06:38:43.050Z,5.12
2018-08-18T06:41:11.785Z,4.83
2018-08-18T06:43:40.229Z,3.10
2018-08-18T06:46:08.385Z,3.95
2018-08-18T06:48:37.293Z,5.95
2018-08-18T06:51:05.753Z,3.05
2018-08-18T06:53:39.590Z,4.33
2018-08-18T06:56:08.051Z,5.95
2018-08-18T06:58:36.553Z,3.05
2018-08-18T07:01:05.018Z,3.55
2018-08-18T07:03:34.746Z,2.90
2018-08-18T07:06:04.759Z,4.80
2018-08-18T07:08:39.862Z,6.70
2018-08-18T07:11:08.166Z,3.40
2018-08-18T07:13:36.570Z,5.30
2018-08-18T07:16:04.816Z,3.72
2018-08-18T07:18:33.013Z,4.35
2018-08-18T07:21:01.209Z,3.12
2018-08-18T07:23:29.390Z,6.83
2018-08-18T07:25:59.982Z,4.17
2018-08-18T07:28:28.419Z,5.80
2018-08-18T07:30:56.538Z,4.15
2018-08-18T07:33:24.829Z,2.87
2018-08-18T07:35:53.025Z,4.67
2018-08-18T07:38:21.456Z,4.72
2018-08-18T07:40:51.509Z,5.80
2018-08-18T07:43:22.574Z,4.10
2018-08-18T07:45:51.749Z,5.35
2018-08-18T07:48:19.937Z,3.42
2018-08-18T07:50:48.214Z,5.90
2018-08-18T07:53:17.687Z,5.00
2018-08-18T07:55:45.870Z,5.95
2018-08-18T07:58:15.963Z,3.83
2018-08-18T08:00:44.440Z,3.00
2018-08-18T08:03:14.558Z,3.33
2018-08-18T08:05:42.944Z,3.35
2018-08-18T08:08:11.444Z,5.53
2018-08-18T08:10:39.808Z,5.87
2018-08-18T08:13:10.417Z,2.70
2018-08-18T08:15:38.687Z,2.17
2018-08-18T08:18:07.162Z,3.65
2018-08-18T08:20:36.438Z,3.20
2018-08-18T08:23:05.205Z,3.50
2018-08-18T08:25:33.898Z,2.33
2018-08-18T08:28:02.098Z,5.78
2018-08-18T08:30:30.512Z,6.08
2018-08-18T08:32:58.733Z,2.80
2018-08-18T08:35:26.901Z,2.98
2018-08-18T08:37:55.245Z,5.72
2018-08-18T08:40:24.509Z,3.45
2018-08-18T08:42:52.961Z,4.67
2018-08-18T08:45:23.677Z,4.30
2018-08-18T08:47:51.858Z,8.05
2018-08-18T08:50:22.009Z,4.17
2018-08-18T08:52:51.295Z,6.00
2018-08-18T08:55:20.792Z,3.77
2018-08-18T08:57:49.033Z,3.98
2018-08-18T09:00:17.186Z,3.55
2018-08-18T09:02:45.786Z,3.70
2018-08-18T09:05:13.962Z,4.15
2018-08-18T09:07:43.237Z,2.37
2018-08-18T09:10:13.272Z,3.98
2018-08-18T09:12:41.550Z,5.10
2018-08-18T09:15:10.855Z,7.40
2018-08-18T09:17:39.031Z,4.53
2018-08-18T09:20:10.371Z,2.77
2018-08-18T09:22:50.034Z,3.85
2018-08-18T09:25:18.266Z,3.80
2018-08-18T09:27:52.561Z,7.58
2018-08-18T09:30:20.918Z,3.85
2018-08-18T09:32:49.378Z,5.28
2018-08-18T09:35:18.007Z,3.52
2018-08-18T09:38:04.881Z,5.17
2018-08-18T09:40:33.152Z,5.20
2018-08-18T09:43:08.536Z,5.12
2018-08-18T09:45:36.800Z,5.50
2018-08-18T09:48:05.748Z,4.37
2018-08-18T09:50:33.984Z,3.75
2018-08-18T09:53:02.139Z,5.62
2018-08-18T09:55:30.419Z,5.75
2018-08-18T09:57:58.781Z,3.83
2018-08-18T10:00:32.469Z,4.53
2018-08-18T10:03:00.641Z,4.17
2018-08-18T10:05:28.942Z,5.87
2018-08-18T10:07:57.122Z,5.40
2018-08-18T10:10:25.369Z,3.22
2018-08-18T10:12:53.522Z,4.28
2018-08-18T10:15:22.005Z,3.25
2018-08-18T10:17:50.149Z,4.85
2018-08-18T10:20:18.505Z,5.80
2018-08-18T10:22:47.026Z,4.47
2018-08-18T10:25:15.243Z,4.90
2018-08-18T10:27:43.460Z,4.42
2018-08-18T10:30:11.629Z,4.87
2018-08-18T10:32:48.865Z,4.53
2018-08-18T10:35:21.749Z,6.90
2018-08-18T10:37:49.914Z,8.00
2018-08-18T10:40:18.726Z,4.83
2018-08-18T10:42:47.012Z,7.28
2018-08-18T10:45:15.675Z,9.35
2018-08-18T10:47:43.912Z,4.45
2018-08-18T10:51:34.019Z,4.42
2018-08-18T10:54:02.702Z,5.65
2018-08-18T10:56:30.858Z,6.05
2018-08-18T10:59:14.449Z,4.37
2018-08-18T11:02:13.686Z,3.52
2018-08-18T11:04:42.135Z,4.60
2018-08-18T11:07:10.265Z,4.15
2018-08-18T11:09:38.925Z,4.50
2018-08-18T11:12:07.089Z,5.80
2018-08-18T11:14:36.358Z,5.95
2018-08-18T11:17:04.866Z,3.95
2018-08-18T11:19:33.021Z,7.50
2018-08-18T11:22:12.604Z,4.55
2018-08-18T11:24:40.777Z,6.12
2018-08-18T11:27:09.313Z,4.22
2018-08-18T11:29:37.482Z,5.00
2018-08-18T11:32:05.658Z,6.00
2018-08-18T11:34:33.786Z,5.40
2018-08-18T11:37:06.071Z,5.80
2018-08-18T11:39:34.320Z,3.50
2018-08-18T11:42:02.758Z,4.25
2018-08-18T11:44:30.942Z,3.70
2018-08-18T11:46:59.220Z,3.90
2018-08-18T11:49:27.684Z,6.62
2018-08-18T11:51:55.967Z,3.05
2018-08-18T11:54:24.247Z,3.90
2018-08-18T11:56:54.330Z,3.60
2018-08-18T11:59:22.466Z,3.95
2018-08-18T12:01:53.356Z,3.40
2018-08-18T12:04:22.219Z,5.15
2018-08-18T12:06:58.712Z,3.12
2018-08-18T12:09:27.310Z,4.67
2018-08-18T12:11:56.190Z,4.40
2018-08-18T12:14:24.398Z,5.28
2018-08-18T12:16:52.595Z,4.10
2018-08-18T12:19:20.890Z,2.85
2018-08-18T12:21:49.078Z,2.62
2018-08-18T12:24:18.797Z,6.33
2018-08-18T12:26:58.360Z,2.87
2018-08-18T12:29:27.639Z,3.58
2018-08-18T12:31:55.747Z,3.50
2018-08-18T12:34:23.961Z,4.20
2018-08-18T12:36:52.188Z,2.85
2018-08-18T12:39:20.327Z,3.20
2018-08-18T12:41:48.535Z,4.85
2018-08-18T12:44:17.391Z,2.50
2018-08-18T12:46:49.758Z,3.72
2018-08-18T12:49:19.480Z,2.50
2018-08-18T12:51:48.142Z,2.77
2018-08-18T12:54:16.460Z,3.25
2018-08-18T12:56:44.789Z,2.52
2018-08-18T12:59:13.025Z,4.00
2018-08-18T13:01:46.717Z,5.33
2018-08-18T13:04:17.461Z,2.72
2018-08-18T13:06:48.238Z,5.78
2018-08-18T13:09:20.773Z,3.20
2018-08-18T13:11:50.195Z,2.20
2018-08-18T13:14:19.830Z,3.75
2018-08-18T13:16:48.060Z,5.20
2018-08-18T13:19:18.235Z,4.08
2018-08-18T13:21:47.327Z,5.90
2018-08-18T13:24:15.763Z,3.77
2018-08-18T13:26:43.888Z,3.77
2018-08-18T13:29:12.306Z,2.45
2018-08-18T13:31:41.573Z,2.55
2018-08-18T13:34:11.634Z,3.37
2018-08-18T13:36:40.996Z,2.87
2018-08-18T13:39:11.585Z,2.27
2018-08-18T13:41:39.858Z,2.52
2018-08-18T13:44:08.018Z,4.87
2018-08-18T13:46:49.143Z,4.42
2018-08-18T13:49:19.853Z,4.47
2018-08-18T13:51:48.107Z,4.53
2018-08-18T13:54:16.288Z,4.25
2018-08-18T13:56:44.471Z,1.65
2018-08-18T13:59:12.749Z,1.70
2018-08-18T14:01:43.134Z,2.33
2018-08-18T14:04:18.728Z,1.45
2018-08-18T14:06:54.002Z,2.52
2018-08-18T14:09:22.205Z,3.37
2018-08-18T14:11:51.957Z,4.47
2018-08-18T14:14:20.122Z,1.77
2018-08-18T14:16:51.219Z,3.62
2018-08-18T14:19:21.103Z,1.57
2018-08-18T14:21:53.249Z,4.80
2018-08-18T14:24:25.649Z,1.77
2018-08-18T14:26:59.945Z,3.17
2018-08-18T14:29:28.921Z,2.67
2018-08-18T14:31:57.188Z,1.50
2018-08-18T14:34:25.405Z,3.08
2018-08-18T14:36:56.878Z,1.90
2018-08-18T14:39:37.151Z,3.40
2018-08-18T14:42:05.907Z,1.67
2018-08-18T14:44:34.524Z,1.70
2018-08-18T14:47:02.864Z,1.70
2018-08-18T14:49:32.301Z,1.72
2018-08-18T14:52:00.473Z,1.60
2018-08-18T14:54:29.539Z,1.52
2018-08-18T14:56:59.266Z,2.85
2018-08-18T14:59:32.457Z,2.25
2018-08-18T15:02:01.931Z,2.60
2018-08-18T15:04:30.143Z,1.40
2018-08-18T15:06:58.574Z,2.35
2018-08-18T15:09:38.278Z,2.22
2018-08-18T15:12:07.049Z,2.10
2018-08-18T15:14:35.222Z,2.25
2018-08-18T15:17:03.442Z,3.90
2018-08-18T15:19:31.805Z,2.12
2018-08-18T15:22:04.924Z,1.45
2018-08-18T15:24:33.946Z,2.15
2018-08-18T15:27:02.134Z,1.75
2018-08-18T15:29:31.219Z,2.62
2018-08-18T15:31:59.426Z,2.08
2018-08-18T15:34:28.069Z,2.50
2018-08-18T15:36:56.520Z,2.08
2018-08-18T15:39:25.173Z,4.22
2018-08-18T15:41:56.317Z,4.87
2018-08-18T15:44:24.535Z,1.95
2018-08-18T15:46:52.742Z,2.35
2018-08-18T15:49:20.933Z,1.98
2018-08-18T15:51:49.150Z,3.22
2018-08-18T15:54:17.433Z,2.75
2018-08-18T15:56:45.513Z,2.60
2018-08-18T15:59:13.725Z,2.87
2018-08-18T16:01:41.905Z,3.65
2018-08-18T16:04:11.019Z,2.10
2018-08-18T16:06:39.453Z,2.42
2018-08-18T16:09:08.351Z,3.08
2018-08-18T16:11:37.443Z,2.65
2018-08-18T16:14:06.617Z,2.15
2018-08-18T16:16:49.039Z,2.05
2018-08-18T16:19:17.226Z,4.95
2018-08-18T16:21:45.438Z,2.85
2018-08-18T16:24:28.531Z,1.72
2018-08-18T16:26:57.034Z,2.92
2018-08-18T16:29:26.037Z,2.42
2018-08-18T16:32:10.239Z,1.75
2018-08-18T16:34:38.382Z,2.60
2018-08-18T16:37:06.975Z,1.90
2018-08-18T16:39:35.250Z,4.28
2018-08-18T16:42:04.000Z,3.15
2018-08-18T16:44:34.133Z,2.42
2018-08-18T16:47:03.850Z,3.10
2018-08-18T16:49:32.230Z,2.90
2018-08-18T16:52:00.901Z,2.50
2018-08-18T16:54:30.516Z,2.75
2018-08-18T16:56:59.026Z,2.37
2018-08-18T16:59:27.475Z,6.25
2018-08-18T17:01:55.641Z,3.22
2018-08-18T17:04:30.645Z,2.52
2018-08-18T17:06:59.048Z,2.95
2018-08-18T17:09:42.557Z,5.67
2018-08-18T17:12:17.771Z,3.10
2018-08-18T17:14:45.962Z,6.25
2018-08-18T17:17:14.138Z,1.80
2018-08-18T17:19:42.307Z,3.02
2018-08-18T17:22:11.429Z,2.15
2018-08-18T17:24:39.602Z,4.62
2018-08-18T17:27:07.786Z,2.35
2018-08-18T17:29:39.310Z,2.67
2018-08-18T17:32:08.337Z,2.55
2018-08-18T17:34:36.546Z,3.40
2018-08-18T17:37:05.047Z,1.55
2018-08-18T17:39:33.226Z,2.05
2018-08-18T17:42:01.418Z,1.57
2018-08-18T17:44:30.169Z,2.87
2018-08-18T17:46:58.369Z,3.50
2018-08-18T17:49:27.539Z,1.65
2018-08-18T17:52:05.253Z,3.83
2018-08-18T17:54:33.714Z,2.40
2018-08-18T17:57:01.945Z,4.10
2018-08-18T17:59:30.263Z,1.40
2018-08-18T18:02:12.319Z,2.33
2018-08-18T18:04:40.489Z,1.87
2018-08-18T18:07:09.725Z,2.35
2018-08-18T18:09:38.642Z,2.98
2018-08-18T18:12:43.591Z,2.08
2018-08-18T18:15:43.647Z,1.82
2018-08-18T18:18:15.862Z,2.15
2018-08-18T18:20:46.373Z,1.10
2018-08-18T18:23:15.225Z,4.20
2018-08-18T18:25:43.469Z,2.40
2018-08-18T18:28:11.618Z,2.52
2018-08-18T18:30:40.709Z,3.10
2018-08-18T18:33:09.766Z,3.70
2018-08-18T18:35:37.985Z,3.30
2018-08-18T18:38:06.556Z,3.02
2018-08-18T18:40:37.525Z,6.03
2018-08-18T18:43:05.926Z,2.02
2018-08-18T18:45:34.276Z,4.35
2018-08-18T18:48:02.489Z,2.08
2018-08-18T18:50:30.784Z,5.65
2018-08-18T18:52:58.966Z,3.27
2018-08-18T18:55:27.240Z,2.65
2018-08-18T18:58:08.221Z,3.30
2018-08-18T19:00:37.621Z,2.35
2018-08-18T19:03:09.018Z,2.47
2018-08-18T19:05:37.193Z,4.40
2018-08-18T19:08:11.828Z,6.30
2018-08-18T19:10:40.070Z,2.35
2018-08-18T19:13:09.010Z,3.37
2018-08-18T19:15:37.238Z,1.70
2018-08-18T19:18:05.737Z,2.45
2018-08-18T19:20:33.949Z,3.47
2018-08-18T19:23:09.734Z,2.15
2018-08-18T19:25:39.021Z,2.98
2018-08-18T19:29:14.950Z,2.75
2018-08-18T19:31:43.126Z,2.12
2018-08-18T19:34:14.438Z,2.85
2018-08-18T19:36:55.327Z,2.12
2018-08-18T19:39:25.510Z,1.77
2018-08-18T19:41:55.365Z,3.70
2018-08-18T19:44:23.585Z,1.90
2018-08-18T19:46:51.749Z,2.35
2018-08-18T19:49:31.314Z,2.90
2018-08-18T19:52:04.179Z,3.12
2018-08-18T19:54:32.561Z,2.30
2018-08-18T19:57:00.840Z,5.15
2018-08-18T19:59:29.026Z,3.85
2018-08-18T20:01:57.364Z,3.83
2018-08-18T20:04:25.464Z,2.83
2018-08-18T20:06:53.635Z,4.80
2018-08-18T20:09:21.913Z,6.70
2018-08-18T20:11:50.084Z,2.45
2018-08-18T20:14:18.305Z,4.37
2018-08-18T20:16:46.449Z,5.25
2018-08-18T20:19:14.718Z,3.35
2018-08-18T20:21:44.496Z,3.12
2018-08-18T20:24:13.033Z,10.23
2018-08-18T20:26:41.206Z,5.60
2018-08-18T20:29:10.213Z,11.70
2018-08-18T20:31:43.835Z,5.70
2018-08-18T20:34:12.726Z,3.77
2018-08-18T20:36:40.942Z,7.10
2018-08-18T20:39:09.110Z,5.58
2018-08-18T20:41:37.330Z,5.30
2018-08-18T20:44:05.478Z,4.63
2018-08-18T20:46:33.710Z,3.77
2018-08-18T20:49:01.996Z,10.17
2018-08-18T20:51:34.774Z,2.77
2018-08-18T20:54:02.987Z,3.30
2018-08-18T20:56:31.201Z,5.23
2018-08-18T20:58:59.345Z,2.67
2018-08-18T21:01:27.527Z,6.40
2018-08-18T21:03:55.730Z,3.20
2018-08-18T21:06:23.918Z,3.93
2018-08-18T21:08:52.601Z,3.60
2018-08-18T21:11:20.761Z,5.03
2018-08-18T21:13:50.203Z,4.43
2018-08-18T21:16:19.053Z,5.33
2018-08-18T21:18:49.094Z,3.53
2018-08-18T21:21:30.154Z,5.43
2018-08-18T21:23:58.363Z,7.17
2018-08-18T21:26:26.564Z,2.97
2018-08-18T21:28:56.097Z,4.20
2018-08-18T21:31:29.697Z,8.77
2018-08-18T21:33:59.581Z,2.97
2018-08-18T21:36:28.021Z,4.17
2018-08-18T21:38:58.663Z,3.90
2018-08-18T21:41:27.191Z,3.97
2018-08-18T21:43:55.349Z,3.20
2018-08-18T21:46:23.493Z,3.60
2018-08-18T21:48:52.977Z,8.57
2018-08-18T21:51:22.757Z,4.03
2018-08-18T21:53:50.937Z,4.97
2018-08-18T21:56:19.426Z,2.57
2018-08-18T21:58:48.007Z,5.53
2018-08-18T22:01:19.187Z,2.27
2018-08-18T22:03:48.260Z,6.83
2018-08-18T22:06:16.451Z,2.77
2018-08-18T22:08:44.670Z,3.20
2018-08-18T22:11:16.306Z,5.83
2018-08-18T22:13:50.013Z,2.97
2018-08-18T22:16:18.203Z,4.33
2018-08-18T22:18:52.725Z,2.90
2018-08-18T22:21:25.130Z,7.33
2018-08-18T22:23:53.317Z,3.03
2018-08-18T22:26:22.345Z,5.17
2018-08-18T22:28:58.250Z,6.37
2018-08-18T22:31:26.942Z,6.37
2018-08-18T22:33:56.362Z,6.43
2018-08-18T22:36:25.952Z,4.63
2018-08-18T22:38:54.407Z,5.97
2018-08-18T22:41:23.454Z,5.10
2018-08-18T22:43:51.629Z,4.97
2018-08-18T22:46:20.108Z,5.70
2018-08-18T22:48:48.327Z,5.47
2018-08-18T22:51:16.519Z,7.33
2018-08-18T22:53:46.141Z,6.20
2018-08-18T22:56:14.317Z,6.67
2018-08-18T22:59:05.394Z,4.93
2018-08-18T23:01:34.979Z,3.50
2018-08-18T23:04:04.229Z,3.97
2018-08-18T23:06:34.553Z,3.87
2018-08-18T23:09:02.866Z,5.43
2018-08-18T23:11:31.058Z,5.87
2018-08-18T23:13:59.238Z,3.97
2018-08-18T23:16:27.429Z,5.53
2018-08-18T23:18:55.754Z,6.30
2018-08-18T23:21:29.289Z,5.50
2018-08-18T23:23:58.541Z,4.30
2018-08-18T23:26:27.297Z,6.60
2018-08-18T23:28:56.118Z,3.90
2018-08-18T23:31:24.514Z,4.30
2018-08-18T23:33:52.730Z,4.30
2018-08-18T23:36:20.941Z,5.73
2018-08-18T23:38:54.531Z,4.63
2018-08-18T23:41:27.606Z,7.87
2018-08-18T23:43:55.848Z,11.77
2018-08-18T23:46:24.037Z,4.87
2018-08-18T23:48:52.227Z,6.00
2018-08-18T23:51:23.490Z,5.23
2018-08-18T23:53:51.678Z,5.17
2018-08-18T23:56:19.894Z,5.83
2018-08-18T23:58:48.176Z,3.70
